Time;durP1;ratioP1;P1;durP2;ratioP2;P2;SDS_P1;SDS_P2;PMS_P1;PMS_P2;Temp;Humidity;BMP_temperature;BMP_pressure;BME280_temperature;BME280_humidity;BME280_pressure;Samples;Min_cycle;Max_cycle;Signal;HPM_P1;HPM_P2
2023/05/08 00:00:07;;;;;;;14.02;5.57;;;;;;;;;;5096344;28;20186;-63
2023/05/08 00:02:34;;;;;;;7.75;5.93;;;;;;;;;;5096240;28;20070;-63
2023/05/08 00:05:00;;;;;;;11.27;6.10;;;;;;;;;;5090801;28;20077;-63
2023/05/08 00:07:27;;;;;;;8.60;6.38;;;;;;;;;;5090777;28;20355;-63
2023/05/08 00:09:54;;;;;;;14.02;6.80;;;;;;;;;;5089549;28;20071;-63
2023/05/08 00:12:21;;;;;;;15.65;5.60;;;;;;;;;;5090731;28;20031;-64
2023/05/08 00:14:47;;;;;;;11.32;5.70;;;;;;;;;;5094757;28;20054;-63
2023/05/08 00:17:14;;;;;;;16.58;6.80;;;;;;;;;;5095988;28;20545;-64
2023/05/08 00:19:41;;;;;;;15.70;7.45;;;;;;;;;;5096027;28;20016;-63
2023/05/08 00:22:08;;;;;;;24.77;7.72;;;;;;;;;;5096080;28;20335;-63
2023/05/08 00:24:34;;;;;;;10.90;6.80;;;;;;;;;;5095826;28;20031;-63
2023/05/08 00:27:01;;;;;;;8.32;6.55;;;;;;;;;;5091763;28;20024;-63
2023/05/08 00:29:28;;;;;;;8.55;6.53;;;;;;;;;;5090740;28;20020;-62
2023/05/08 00:31:55;;;;;;;7.90;5.95;;;;;;;;;;5089830;28;20028;-63
2023/05/08 00:34:21;;;;;;;11.18;7.65;;;;;;;;;;5090434;28;20063;-63
2023/05/08 00:36:48;;;;;;;9.73;6.15;;;;;;;;;;5093541;28;20027;-63
2023/05/08 00:39:15;;;;;;;9.23;5.53;;;;;;;;;;5095559;28;20021;-63
2023/05/08 00:41:42;;;;;;;14.35;6.55;;;;;;;;;;5095519;28;20085;-63
2023/05/08 00:44:08;;;;;;;13.88;6.57;;;;;;;;;;5095508;28;20356;-63
2023/05/08 00:46:36;;;;;;;9.45;6.65;;;;;;;;;;5095460;28;20485;-63
2023/05/08 00:49:03;;;;;;;11.10;6.35;;;;;;;;;;5092015;28;20024;-63
2023/05/08 00:51:30;;;;;;;11.48;7.63;;;;;;;;;;5090061;28;20494;-63
2023/05/08 00:53:57;;;;;;;10.48;6.00;;;;;;;;;;5089918;28;20044;-63
2023/05/08 00:56:25;;;;;;;15.63;5.93;;;;;;;;;;5090303;28;20056;-63
2023/05/08 00:58:52;;;;;;;7.53;4.78;;;;;;;;;;5092325;28;20024;-63
2023/05/08 01:01:18;;;;;;;9.38;5.85;;;;;;;;;;5095178;28;20039;-63
2023/05/08 01:03:46;;;;;;;8.77;5.97;;;;;;;;;;5095130;28;20032;-63
2023/05/08 01:06:12;;;;;;;7.05;4.88;;;;;;;;;;5094874;28;20025;-62
2023/05/08 01:08:39;;;;;;;8.95;5.20;;;;;;;;;;5093551;28;20020;-63
2023/05/08 01:11:09;;;;;;;5.80;4.13;;;;;;;;;;5092900;28;20100;-63
2023/05/08 01:13:42;;;;;;;5.93;3.63;;;;;;;;;;5089959;28;20758;-63
2023/05/08 01:16:24;;;;;;;6.82;3.85;;;;;;;;;;5089846;28;20105;-63
2023/05/08 01:18:58;;;;;;;4.95;3.75;;;;;;;;;;5089992;28;20104;-62
2023/05/08 01:21:30;;;;;;;5.05;3.42;;;;;;;;;;5092260;28;20382;-63
2023/05/08 01:24:17;;;;;;;5.22;4.07;;;;;;;;;;5094742;28;20020;-63
2023/05/08 01:27:02;;;;;;;19.15;4.78;;;;;;;;;;5094801;28;20031;-63
2023/05/08 01:29:29;;;;;;;8.20;5.32;;;;;;;;;;5094899;28;20023;-63
2023/05/08 01:32:13;;;;;;;7.70;5.25;;;;;;;;;;5094551;28;20031;-63
2023/05/08 01:34:49;;;;;;;5.00;3.38;;;;;;;;;;5089996;28;20115;-63
2023/05/08 01:37:20;;;;;;;16.13;4.80;;;;;;;;;;5089598;28;20024;-63
2023/05/08 01:39:47;;;;;;;6.32;4.18;;;;;;;;;;5089220;28;20026;-63
2023/05/08 01:42:21;;;;;;;5.85;3.40;;;;;;;;;;5089609;28;20355;-63
2023/05/08 01:44:51;;;;;;;9.80;5.65;;;;;;;;;;5093919;28;20073;-62
2023/05/08 01:47:20;;;;;;;7.55;4.90;;;;;;;;;;5094520;28;20025;-63
2023/05/08 01:49:55;;;;;;;9.07;5.28;;;;;;;;;;5094587;28;20073;-62
2023/05/08 01:52:28;;;;;;;7.95;5.13;;;;;;;;;;5094286;28;20212;-63
2023/05/08 01:55:01;;;;;;;9.93;5.70;;;;;;;;;;5094347;28;20135;-62
2023/05/08 01:57:29;;;;;;;8.82;6.10;;;;;;;;;;5089030;28;20399;-62
2023/05/08 01:59:56;;;;;;;18.23;6.38;;;;;;;;;;5089131;28;20482;-62
2023/05/08 02:02:24;;;;;;;10.77;5.65;;;;;;;;;;5089071;28;20370;-62
2023/05/08 02:04:51;;;;;;;6.90;4.82;;;;;;;;;;5089014;28;20024;-62
2023/05/08 02:07:19;;;;;;;10.23;6.20;;;;;;;;;;5093247;28;20466;-62
2023/05/08 02:09:47;;;;;;;18.33;6.80;;;;;;;;;;5094183;28;20031;-62
2023/05/08 02:12:16;;;;;;;19.87;7.87;;;;;;;;;;5093958;28;20028;-62
2023/05/08 02:14:43;;;;;;;10.73;6.00;;;;;;;;;;5093659;28;20039;-62
2023/05/08 02:17:11;;;;;;;11.13;5.70;;;;;;;;;;5093977;28;20107;-62
2023/05/08 02:19:39;;;;;;;29.43;7.40;;;;;;;;;;5088417;28;20056;-62
2023/05/08 02:22:08;;;;;;;7.80;5.13;;;;;;;;;;5088775;28;20024;-63
2023/05/08 02:24:35;;;;;;;32.87;7.47;;;;;;;;;;5088465;28;20479;-62
2023/05/08 02:27:02;;;;;;;10.17;6.03;;;;;;;;;;5088691;28;20042;-62
2023/05/08 02:29:30;;;;;;;7.57;5.13;;;;;;;;;;5092585;28;20020;-62
2023/05/08 02:31:58;;;;;;;10.73;5.80;;;;;;;;;;5093444;28;20036;-62
2023/05/08 02:34:25;;;;;;;11.27;6.50;;;;;;;;;;5093398;28;20032;-62
2023/05/08 02:36:53;;;;;;;10.83;6.20;;;;;;;;;;5093501;28;20370;-62
2023/05/08 02:39:21;;;;;;;15.27;6.47;;;;;;;;;;5093528;28;20467;-62
2023/05/08 02:41:49;;;;;;;12.43;7.00;;;;;;;;;;5088698;28;20466;-62
2023/05/08 02:44:15;;;;;;;8.50;5.80;;;;;;;;;;5088382;28;20442;-62
2023/05/08 02:46:57;;;;;;;6.37;4.73;;;;;;;;;;5088270;28;20583;-62
2023/05/08 02:49:50;;;;;;;13.63;6.10;;;;;;;;;;5087979;28;20024;-62
2023/05/08 02:52:16;;;;;;;19.30;5.87;;;;;;;;;;5089458;28;20044;-62
2023/05/08 02:55:01;;;;;;;9.63;5.90;;;;;;;;;;5093047;28;20028;-62
2023/05/08 02:57:33;;;;;;;11.80;6.53;;;;;;;;;;5093221;28;20142;-62
2023/05/08 03:00:06;;;;;;;6.73;5.53;;;;;;;;;;5092961;28;20433;-62
2023/05/08 03:02:35;;;;;;;8.40;4.90;;;;;;;;;;5092258;28;20022;-62
2023/05/08 03:05:14;;;;;;;5.73;4.33;;;;;;;;;;5087847;28;20032;-62
2023/05/08 03:07:42;;;;;;;5.80;4.30;;;;;;;;;;5087661;28;20050;-62
2023/05/08 03:10:12;;;;;;;6.07;4.07;;;;;;;;;;5088053;28;20494;-62
2023/05/08 03:12:41;;;;;;;6.50;4.40;;;;;;;;;;5088293;28;20020;-62
2023/05/08 03:15:12;;;;;;;8.33;4.83;;;;;;;;;;5092474;28;20504;-62
2023/05/08 03:17:42;;;;;;;8.57;4.53;;;;;;;;;;5092944;28;20020;-62
2023/05/08 03:20:11;;;;;;;7.20;4.70;;;;;;;;;;5092757;28;20056;-62
2023/05/08 03:22:38;;;;;;;7.40;4.10;;;;;;;;;;5092763;28;20020;-62
2023/05/08 03:25:07;;;;;;;4.83;3.20;;;;;;;;;;5091575;28;20094;-62
2023/05/08 03:27:34;;;;;;;4.60;3.17;;;;;;;;;;5087448;28;20478;-63
2023/05/08 03:30:02;;;;;;;5.60;3.20;;;;;;;;;;5087555;28;20059;-62
2023/05/08 03:32:29;;;;;;;13.47;5.33;;;;;;;;;;5086736;28;20089;-63
2023/05/08 03:34:59;;;;;;;7.80;4.73;;;;;;;;;;5087724;28;20032;-62
2023/05/08 03:37:29;;;;;;;7.03;4.30;;;;;;;;;;5074617;28;20040;-62
2023/05/08 03:39:56;;;;;;;6.67;4.50;;;;;;;;;;5092526;28;20065;-62
2023/05/08 03:42:24;;;;;;;7.37;3.70;;;;;;;;;;5092353;28;20048;-62
2023/05/08 03:44:51;;;;;;;8.90;5.37;;;;;;;;;;5092257;28;20039;-62
2023/05/08 03:47:18;;;;;;;7.97;5.20;;;;;;;;;;5091485;28;20092;-62
2023/05/08 03:49:46;;;;;;;10.30;4.73;;;;;;;;;;5087412;28;20024;-62
2023/05/08 03:52:16;;;;;;;8.23;5.07;;;;;;;;;;5087359;28;20040;-62
2023/05/08 03:54:43;;;;;;;7.80;3.87;;;;;;;;;;5087430;28;20036;-62
2023/05/08 03:57:10;;;;;;;6.00;4.00;;;;;;;;;;5087343;28;20028;-62
2023/05/08 04:00:03;;;;;;;5.53;4.00;;;;;;;;;;5092154;28;20024;-62
2023/05/08 04:02:33;;;;;;;7.43;4.00;;;;;;;;;;5089389;28;20032;-62
2023/05/08 04:05:14;;;;;;;11.73;4.43;;;;;;;;;;5092353;28;20066;-62
2023/05/08 04:07:47;;;;;;;4.00;3.20;;;;;;;;;;5092229;28;20034;-62
2023/05/08 04:10:24;;;;;;;6.90;4.67;;;;;;;;;;5090251;28;20019;-63
2023/05/08 04:13:03;;;;;;;8.47;4.97;;;;;;;;;;5087232;28;20032;-61
2023/05/08 04:15:31;;;;;;;5.57;3.80;;;;;;;;;;5086830;28;20081;-62
2023/05/08 04:18:12;;;;;;;5.07;3.50;;;;;;;;;;5087247;28;20379;-62
2023/05/08 04:20:41;;;;;;;18.57;6.57;;;;;;;;;;5088519;28;20028;-61
2023/05/08 04:23:08;;;;;;;18.00;4.03;;;;;;;;;;5092267;28;20073;-62
2023/05/08 04:25:37;;;;;;;7.57;4.17;;;;;;;;;;5092190;28;20491;-62
2023/05/08 04:28:04;;;;;;;5.33;4.00;;;;;;;;;;5092053;28;20034;-62
2023/05/08 04:30:31;;;;;;;4.87;3.03;;;;;;;;;;5091918;28;20028;-62
2023/05/08 04:32:59;;;;;;;9.90;4.83;;;;;;;;;;5089414;28;20024;-62
2023/05/08 04:35:25;;;;;;;6.83;4.43;;;;;;;;;;5086821;28;20032;-61
2023/05/08 04:37:52;;;;;;;19.10;4.37;;;;;;;;;;5086479;28;20027;-62
2023/05/08 04:40:19;;;;;;;6.03;4.30;;;;;;;;;;5086900;28;20050;-62
2023/05/08 04:42:46;;;;;;;8.27;4.80;;;;;;;;;;5088632;28;20024;-61
2023/05/08 04:45:13;;;;;;;6.93;4.87;;;;;;;;;;5095633;28;20032;-62
2023/05/08 04:47:40;;;;;;;13.97;6.40;;;;;;;;;;5095591;28;20028;-62
2023/05/08 04:50:06;;;;;;;5.63;3.87;;;;;;;;;;5095324;28;20016;-61
2023/05/08 04:52:35;;;;;;;11.20;5.33;;;;;;;;;;5095487;28;20024;-62
2023/05/08 04:55:02;;;;;;;9.37;5.53;;;;;;;;;;5093498;28;20025;-61
2023/05/08 04:57:29;;;;;;;9.07;5.43;;;;;;;;;;5090380;28;20020;-61
2023/05/08 04:59:56;;;;;;;6.90;5.20;;;;;;;;;;5090466;28;20614;-62
2023/05/08 05:02:23;;;;;;;5.00;4.20;;;;;;;;;;5090455;28;20375;-61
2023/05/08 05:04:50;;;;;;;8.53;5.37;;;;;;;;;;5090840;28;20024;-62
2023/05/08 05:07:16;;;;;;;7.50;5.00;;;;;;;;;;5094980;28;20024;-62
2023/05/08 05:09:43;;;;;;;8.53;6.00;;;;;;;;;;5095241;28;20510;-61
2023/05/08 05:12:10;;;;;;;10.07;5.43;;;;;;;;;;5095226;28;20044;-61
2023/05/08 05:14:36;;;;;;;7.50;4.63;;;;;;;;;;5094562;28;20036;-61
2023/05/08 05:17:03;;;;;;;5.40;3.83;;;;;;;;;;5094502;28;20097;-62
2023/05/08 05:19:30;;;;;;;9.33;5.37;;;;;;;;;;5089927;28;20036;-62
2023/05/08 05:21:57;;;;;;;26.27;4.53;;;;;;;;;;5090068;28;20107;-61
2023/05/08 05:24:24;;;;;;;7.57;5.37;;;;;;;;;;5089623;28;20024;-62
2023/05/08 05:26:50;;;;;;;7.43;5.33;;;;;;;;;;5089823;28;20024;-61
2023/05/08 05:29:17;;;;;;;6.27;4.37;;;;;;;;;;5094698;28;20379;-61
2023/05/08 05:31:44;;;;;;;7.50;4.90;;;;;;;;;;5094632;28;20501;-61
2023/05/08 05:34:11;;;;;;;11.37;5.73;;;;;;;;;;5094206;28;20089;-62
2023/05/08 05:36:38;;;;;;;7.30;5.07;;;;;;;;;;5094763;28;20035;-62
2023/05/08 05:39:05;;;;;;;7.30;5.40;;;;;;;;;;5094765;28;20034;-61
2023/05/08 05:41:33;;;;;;;7.20;4.30;;;;;;;;;;5089290;28;20024;-62
2023/05/08 05:43:59;;;;;;;21.50;6.77;;;;;;;;;;5089460;28;20514;-61
2023/05/08 05:46:31;;;;;;;10.20;4.80;;;;;;;;;;5089546;28;20048;-61
2023/05/08 05:48:58;;;;;;;9.00;4.27;;;;;;;;;;5089348;28;20471;-62
2023/05/08 05:51:26;;;;;;;12.30;6.20;;;;;;;;;;5093461;28;20024;-61
2023/05/08 05:53:53;;;;;;;12.17;5.83;;;;;;;;;;5094176;28;20043;-61
2023/05/08 05:56:22;;;;;;;12.20;5.40;;;;;;;;;;5093812;28;20157;-61
2023/05/08 05:58:48;;;;;;;9.87;5.37;;;;;;;;;;5094036;28;20024;-61
2023/05/08 06:01:15;;;;;;;20.03;6.37;;;;;;;;;;5094245;28;20020;-61
2023/05/08 06:03:42;;;;;;;11.20;6.17;;;;;;;;;;5089421;28;20424;-61
2023/05/08 06:06:10;;;;;;;7.23;3.97;;;;;;;;;;5089149;28;20023;-61
2023/05/08 06:08:36;;;;;;;6.67;4.80;;;;;;;;;;5088689;28;20127;-61
2023/05/08 06:11:03;;;;;;;14.93;4.43;;;;;;;;;;5088986;28;20035;-62
2023/05/08 06:13:30;;;;;;;7.50;5.63;;;;;;;;;;5092538;28;20039;-61
2023/05/08 06:15:57;;;;;;;5.97;4.50;;;;;;;;;;5093777;28;20383;-62
2023/05/08 06:18:23;;;;;;;5.77;3.53;;;;;;;;;;5093977;28;20030;-61
2023/05/08 06:20:56;;;;;;;3.43;2.80;;;;;;;;;;5093695;28;20111;-61
2023/05/08 06:23:22;;;;;;;5.77;4.20;;;;;;;;;;5093886;28;20024;-61
2023/05/08 06:25:49;;;;;;;6.80;3.83;;;;;;;;;;5089685;28;20402;-62
2023/05/08 06:28:16;;;;;;;8.67;4.43;;;;;;;;;;5088415;28;20068;-62
2023/05/08 06:30:43;;;;;;;11.63;5.83;;;;;;;;;;5088783;28;20498;-61
2023/05/08 06:33:10;;;;;;;11.00;4.80;;;;;;;;;;5088026;28;20032;-62
2023/05/08 06:35:37;;;;;;;8.67;4.70;;;;;;;;;;5091591;28;20024;-62
2023/05/08 06:38:03;;;;;;;8.17;5.40;;;;;;;;;;5093503;28;20024;-61
2023/05/08 06:40:30;;;;;;;6.40;5.20;;;;;;;;;;5093613;28;20020;-61
2023/05/08 06:42:57;;;;;;;8.70;5.23;;;;;;;;;;5092928;28;20024;-61
2023/05/08 06:45:24;;;;;;;8.97;4.73;;;;;;;;;;5093492;28;20039;-61
2023/05/08 06:47:50;;;;;;;12.50;5.23;;;;;;;;;;5089996;28;20032;-61
2023/05/08 06:50:17;;;;;;;8.37;5.57;;;;;;;;;;5088437;28;20032;-61
2023/05/08 06:52:44;;;;;;;7.97;5.53;;;;;;;;;;5088263;28;20505;-61
2023/05/08 06:55:10;;;;;;;11.57;5.03;;;;;;;;;;5088065;28;20042;-61
2023/05/08 06:57:37;;;;;;;7.60;5.43;;;;;;;;;;5090543;28;20077;-61
2023/05/08 07:00:05;;;;;;;7.97;4.73;;;;;;;;;;5093093;28;20023;-61
2023/05/08 07:02:31;;;;;;;8.97;6.07;;;;;;;;;;5092839;28;20028;-61
2023/05/08 07:04:58;;;;;;;12.33;6.70;;;;;;;;;;5093176;28;20079;-61
2023/05/08 07:07:25;;;;;;;8.43;5.50;;;;;;;;;;5091909;28;20386;-61
2023/05/08 07:09:52;;;;;;;7.43;5.13;;;;;;;;;;5090573;28;20028;-61
2023/05/08 07:12:18;;;;;;;10.80;5.93;;;;;;;;;;5087768;28;20490;-61
2023/05/08 07:14:45;;;;;;;8.37;6.03;;;;;;;;;;5087704;28;20039;-61
2023/05/08 07:17:12;;;;;;;16.30;6.73;;;;;;;;;;5087982;28;20028;-61
2023/05/08 07:19:39;;;;;;;10.83;7.37;;;;;;;;;;5089165;28;20852;-61
2023/05/08 07:22:06;;;;;;;29.53;7.17;;;;;;;;;;5092874;28;20048;-61
2023/05/08 07:24:33;;;;;;;7.47;5.90;;;;;;;;;;5092714;28;20329;-61
2023/05/08 07:27:00;;;;;;;10.67;6.43;;;;;;;;;;5092707;28;20020;-61
2023/05/08 07:29:27;;;;;;;10.43;5.63;;;;;;;;;;5092756;28;20034;-61
2023/05/08 07:31:53;;;;;;;8.53;5.87;;;;;;;;;;5090886;28;20043;-61
2023/05/08 07:34:20;;;;;;;18.23;6.77;;;;;;;;;;5087382;28;20111;-61
2023/05/08 07:36:47;;;;;;;7.50;5.97;;;;;;;;;;5087473;28;20395;-61
2023/05/08 07:39:14;;;;;;;13.13;6.40;;;;;;;;;;5087199;28;20068;-61
2023/05/08 07:41:41;;;;;;;15.50;5.20;;;;;;;;;;5088209;28;20403;-61
2023/05/08 07:44:08;;;;;;;8.87;5.10;;;;;;;;;;5092464;28;21000;-61
2023/05/08 07:46:36;;;;;;;6.80;4.93;;;;;;;;;;5092529;28;20467;-61
2023/05/08 07:49:03;;;;;;;9.87;6.53;;;;;;;;;;5092416;28;20028;-61
2023/05/08 07:51:30;;;;;;;11.73;6.43;;;;;;;;;;5092379;28;20020;-61
2023/05/08 07:53:57;;;;;;;10.23;6.67;;;;;;;;;;5091191;28;20032;-61
2023/05/08 07:56:24;;;;;;;5.40;4.27;;;;;;;;;;5086923;28;20351;-61
2023/05/08 07:58:50;;;;;;;9.17;6.33;;;;;;;;;;5087242;28;20073;-61
2023/05/08 08:01:17;;;;;;;8.47;5.27;;;;;;;;;;5087274;28;20025;-62
2023/05/08 08:03:47;;;;;;;13.70;6.03;;;;;;;;;;5087346;28;20482;-62
2023/05/08 08:06:14;;;;;;;13.47;6.73;;;;;;;;;;5092418;28;20099;-62
2023/05/08 08:08:41;;;;;;;8.40;5.83;;;;;;;;;;5092313;28;20100;-61
2023/05/08 08:11:07;;;;;;;5.50;3.80;;;;;;;;;;5092242;28;20027;-61
2023/05/08 08:13:34;;;;;;;7.27;5.13;;;;;;;;;;5091763;28;20399;-61
2023/05/08 08:16:03;;;;;;;8.90;6.27;;;;;;;;;;5091869;28;20024;-62
2023/05/08 08:18:30;;;;;;;7.77;5.97;;;;;;;;;;5088655;28;20027;-61
2023/05/08 08:20:57;;;;;;;8.37;4.57;;;;;;;;;;5091041;28;20081;-61
2023/05/08 08:23:24;;;;;;;7.30;5.87;;;;;;;;;;5091062;28;20020;-62
2023/05/08 08:25:52;;;;;;;10.60;6.07;;;;;;;;;;5090965;28;20024;-61
2023/05/08 08:28:19;;;;;;;11.37;5.90;;;;;;;;;;5095638;28;20021;-61
2023/05/08 08:30:46;;;;;;;11.47;7.30;;;;;;;;;;5095700;28;20023;-61
2023/05/08 08:33:13;;;;;;;10.77;7.33;;;;;;;;;;5095789;28;20043;-61
2023/05/08 08:35:39;;;;;;;22.07;6.07;;;;;;;;;;5095811;28;20047;-61
2023/05/08 08:38:06;;;;;;;9.27;5.67;;;;;;;;;;5095818;28;20024;-61
2023/05/08 08:40:33;;;;;;;6.13;4.73;;;;;;;;;;5090703;28;20395;-62
2023/05/08 08:43:00;;;;;;;7.83;5.80;;;;;;;;;;5090781;28;20427;-61
2023/05/08 08:45:26;;;;;;;11.53;7.07;;;;;;;;;;5090841;28;20016;-61
2023/05/08 08:47:54;;;;;;;8.17;6.80;;;;;;;;;;5090728;28;20024;-61
2023/05/08 08:50:22;;;;;;;11.50;7.07;;;;;;;;;;5094226;28;20031;-61
2023/05/08 08:52:53;;;;;;;9.83;7.10;;;;;;;;;;5095821;28;20441;-61
2023/05/08 08:55:20;;;;;;;10.03;6.90;;;;;;;;;;5095471;28;20036;-61
2023/05/08 08:57:50;;;;;;;9.07;6.23;;;;;;;;;;5095386;28;20020;-61
2023/05/08 09:00:17;;;;;;;11.10;6.63;;;;;;;;;;5095404;28;20347;-61
2023/05/08 09:02:45;;;;;;;8.80;7.47;;;;;;;;;;5090796;28;20058;-61
2023/05/08 09:05:12;;;;;;;14.00;5.60;;;;;;;;;;5089857;28;20092;-61
2023/05/08 09:07:40;;;;;;;4.63;3.67;;;;;;;;;;5090151;28;20487;-61
2023/05/08 09:10:07;;;;;;;12.93;7.13;;;;;;;;;;5090404;28;20518;-61
2023/05/08 09:12:34;;;;;;;13.07;7.87;;;;;;;;;;5094056;28;20024;-61
2023/05/08 09:15:01;;;;;;;12.00;7.03;;;;;;;;;;5095104;28;20478;-61
2023/05/08 09:17:28;;;;;;;10.33;6.53;;;;;;;;;;5095102;28;20107;-61
2023/05/08 09:19:55;;;;;;;10.87;7.90;;;;;;;;;;5095119;28;20055;-61
2023/05/08 09:22:23;;;;;;;7.97;5.63;;;;;;;;;;5094661;28;20500;-62
2023/05/08 09:25:01;;;;;;;10.80;7.10;;;;;;;;;;5090778;28;20032;-61
2023/05/08 09:27:28;;;;;;;14.00;7.43;;;;;;;;;;5089890;28;20420;-61
2023/05/08 09:30:00;;;;;;;12.03;7.87;;;;;;;;;;5088771;28;20099;-62
2023/05/08 09:32:28;;;;;;;15.20;7.80;;;;;;;;;;5089878;28;20028;-61
2023/05/08 09:34:55;;;;;;;12.60;6.17;;;;;;;;;;5093097;28;20051;-61
2023/05/08 09:37:21;;;;;;;9.70;6.17;;;;;;;;;;5094793;28;20399;-61
2023/05/08 09:39:48;;;;;;;13.60;7.67;;;;;;;;;;5094789;28;20028;-61
2023/05/08 09:42:15;;;;;;;9.77;7.57;;;;;;;;;;5094490;28;20016;-61
2023/05/08 09:44:46;;;;;;;15.27;8.03;;;;;;;;;;5094694;28;20095;-61
2023/05/08 09:47:13;;;;;;;7.23;5.83;;;;;;;;;;5090310;28;20040;-61
2023/05/08 09:49:55;;;;;;;8.60;7.50;;;;;;;;;;5089425;28;20028;-61
2023/05/08 09:52:23;;;;;;;8.60;6.80;;;;;;;;;;5089543;28;20051;-61
2023/05/08 09:55:00;;;;;;;10.43;6.67;;;;;;;;;;5089286;28;20487;-61
2023/05/08 09:57:28;;;;;;;9.87;6.83;;;;;;;;;;5093645;28;20032;-61
2023/05/08 10:00:02;;;;;;;13.83;7.67;;;;;;;;;;5094127;28;20103;-61
2023/05/08 10:02:29;;;;;;;15.68;8.10;;;;;;;;;;5093969;28;20463;-61
2023/05/08 10:04:56;;;;;;;29.70;7.63;;;;;;;;;;5094169;28;20055;-61
2023/05/08 10:07:30;;;;;;;7.13;5.83;;;;;;;;;;5094075;28;20103;-61
2023/05/08 10:10:01;;;;;;;9.87;6.80;;;;;;;;;;5089089;28;20085;-61
2023/05/08 10:12:29;;;;;;;10.80;7.23;;;;;;;;;;5089092;28;20032;-61
2023/05/08 10:14:56;;;;;;;6.30;5.40;;;;;;;;;;5088871;28;20032;-61
2023/05/08 10:17:26;;;;;;;11.57;7.90;;;;;;;;;;5088437;28;20423;-61
2023/05/08 10:20:00;;;;;;;10.50;7.00;;;;;;;;;;5093165;28;20517;-61
2023/05/08 10:22:28;;;;;;;10.10;7.30;;;;;;;;;;5093936;28;20016;-61
2023/05/08 10:24:59;;;;;;;7.07;5.33;;;;;;;;;;5093757;28;20050;-61
2023/05/08 10:27:40;;;;;;;7.73;6.43;;;;;;;;;;5093709;28;20051;-62
2023/05/08 10:30:09;;;;;;;6.70;4.70;;;;;;;;;;5093588;28;20371;-60
2023/05/08 10:32:42;;;;;;;8.57;5.57;;;;;;;;;;5088595;28;20024;-62
2023/05/08 10:35:10;;;;;;;7.50;5.43;;;;;;;;;;5089105;28;20028;-61
2023/05/08 10:37:38;;;;;;;10.10;7.73;;;;;;;;;;5088346;28;20032;-62
2023/05/08 10:40:06;;;;;;;16.63;6.37;;;;;;;;;;5088490;28;20020;-60
2023/05/08 10:42:36;;;;;;;9.93;6.93;;;;;;;;;;5092736;28;20467;-61
2023/05/08 10:45:04;;;;;;;13.50;8.23;;;;;;;;;;5093402;28;20069;-61
2023/05/08 10:47:50;;;;;;;9.17;6.87;;;;;;;;;;5093523;28;20020;-62
2023/05/08 10:50:22;;;;;;;9.05;6.05;;;;;;;;;;5093415;28;20532;-61
2023/05/08 10:53:04;;;;;;;8.47;5.43;;;;;;;;;;5091752;28;20560;-61
2023/05/08 10:55:32;;;;;;;7.23;6.10;;;;;;;;;;5088277;28;20448;-61
2023/05/08 10:58:09;;;;;;;11.80;5.77;;;;;;;;;;5088159;28;20371;-61
2023/05/08 11:00:54;;;;;;;10.40;7.77;;;;;;;;;;5088180;28;20016;-61
2023/05/08 11:03:23;;;;;;;8.43;6.47;;;;;;;;;;5089865;28;20415;-61
2023/05/08 11:05:51;;;;;;;11.57;8.07;;;;;;;;;;5093145;28;20020;-61
2023/05/08 11:08:18;;;;;;;15.57;6.73;;;;;;;;;;5092919;28;20055;-61
2023/05/08 11:11:05;;;;;;;8.67;5.97;;;;;;;;;;5093039;28;20024;-62
2023/05/08 11:13:36;;;;;;;10.20;8.17;;;;;;;;;;5092624;28;20074;-62
2023/05/08 11:16:03;;;;;;;8.87;6.23;;;;;;;;;;5090035;28;20027;-61
2023/05/08 11:18:29;;;;;;;7.60;6.00;;;;;;;;;;5087834;28;20351;-60
2023/05/08 11:21:03;;;;;;;7.00;5.10;;;;;;;;;;5087749;28;20034;-62
2023/05/08 11:23:31;;;;;;;9.57;7.13;;;;;;;;;;5087797;28;20080;-61
2023/05/08 11:26:01;;;;;;;15.07;8.17;;;;;;;;;;5089968;28;20519;-60
2023/05/08 11:28:31;;;;;;;17.13;8.77;;;;;;;;;;5092813;28;20051;-61
2023/05/08 11:31:02;;;;;;;13.27;8.37;;;;;;;;;;5092923;28;20061;-61
2023/05/08 11:33:32;;;;;;;10.87;7.67;;;;;;;;;;5092379;28;20103;-61
2023/05/08 11:36:00;;;;;;;10.77;6.33;;;;;;;;;;5092572;28;20023;-61
2023/05/08 11:38:31;;;;;;;11.77;8.70;;;;;;;;;;5089557;28;20020;-61
2023/05/08 11:40:59;;;;;;;8.23;6.70;;;;;;;;;;5087166;28;20382;-61
2023/05/08 11:43:28;;;;;;;16.90;8.97;;;;;;;;;;5087276;28;20502;-61
2023/05/08 11:45:59;;;;;;;16.10;9.93;;;;;;;;;;5087471;28;20042;-61
2023/05/08 11:48:26;;;;;;;13.83;8.53;;;;;;;;;;5090193;28;20104;-61
2023/05/08 11:50:53;;;;;;;9.40;6.90;;;;;;;;;;5092431;28;20032;-61
2023/05/08 11:53:20;;;;;;;10.03;6.83;;;;;;;;;;5093773;28;20023;-61
2023/05/08 11:55:52;;;;;;;9.17;7.77;;;;;;;;;;5096217;28;20023;-61
2023/05/08 11:58:18;;;;;;;14.50;8.70;;;;;;;;;;5096564;28;20150;-60
2023/05/08 12:00:46;;;;;;;9.70;7.37;;;;;;;;;;5093514;28;20107;-61
2023/05/08 12:03:13;;;;;;;15.17;8.50;;;;;;;;;;5091386;28;20475;-62
2023/05/08 12:05:40;;;;;;;16.27;8.53;;;;;;;;;;5091314;28;20024;-61
2023/05/08 12:08:08;;;;;;;7.70;6.57;;;;;;;;;;5091235;28;20036;-61
2023/05/08 12:10:41;;;;;;;16.50;8.80;;;;;;;;;;5093649;28;20517;-60
2023/05/08 12:13:23;;;;;;;13.63;8.10;;;;;;;;;;5096257;28;20027;-61
2023/05/08 12:15:52;;;;;;;10.03;7.90;;;;;;;;;;5096207;28;20166;-61
2023/05/08 12:18:19;;;;;;;11.77;7.93;;;;;;;;;;5095907;28;20027;-61
2023/05/08 12:20:46;;;;;;;7.90;5.93;;;;;;;;;;5096150;28;20026;-60
2023/05/08 12:23:13;;;;;;;12.13;8.60;;;;;;;;;;5092196;28;20153;-62
2023/05/08 12:25:40;;;;;;;12.27;8.17;;;;;;;;;;5091054;28;20020;-61
2023/05/08 12:28:07;;;;;;;24.27;9.23;;;;;;;;;;5090851;28;20027;-61
2023/05/08 12:30:34;;;;;;;14.33;8.27;;;;;;;;;;5090780;28;20510;-62
2023/05/08 12:33:03;;;;;;;14.53;9.03;;;;;;;;;;5093239;28;20049;-61
2023/05/08 12:35:30;;;;;;;21.63;9.07;;;;;;;;;;5095339;28;20039;-61
2023/05/08 12:38:03;;;;;;;9.50;7.87;;;;;;;;;;5095732;28;20486;-61
2023/05/08 12:40:31;;;;;;;22.07;8.67;;;;;;;;;;5095676;28;20016;-61
2023/05/08 12:43:01;;;;;;;11.83;8.13;;;;;;;;;;5095691;28;20024;-61
2023/05/08 12:45:32;;;;;;;13.23;9.70;;;;;;;;;;5092489;28;20103;-61
2023/05/08 12:48:03;;;;;;;12.50;9.33;;;;;;;;;;5090584;28;20016;-60
2023/05/08 12:50:34;;;;;;;18.37;9.00;;;;;;;;;;5090626;28;20048;-61
2023/05/08 12:53:04;;;;;;;12.40;7.67;;;;;;;;;;5090316;28;20020;-61
2023/05/08 12:55:32;;;;;;;13.93;8.57;;;;;;;;;;5093198;28;20027;-61
2023/05/08 12:58:03;;;;;;;8.77;6.97;;;;;;;;;;5095402;28;20081;-61
2023/05/08 13:00:37;;;;;;;8.23;6.40;;;;;;;;;;5095405;28;20419;-61
2023/05/08 13:03:04;;;;;;;14.10;6.73;;;;;;;;;;5095297;28;20474;-61
2023/05/08 13:05:31;;;;;;;9.53;7.00;;;;;;;;;;5094709;28;20024;-61
2023/05/08 13:08:01;;;;;;;16.80;7.60;;;;;;;;;;5091459;28;20028;-61
2023/05/08 13:10:45;;;;;;;10.83;6.33;;;;;;;;;;5090247;28;20020;-61
2023/05/08 13:13:12;;;;;;;20.17;8.73;;;;;;;;;;5090070;28;20024;-61
2023/05/08 13:15:39;;;;;;;11.83;7.27;;;;;;;;;;5090061;28;20417;-61
2023/05/08 13:18:06;;;;;;;11.07;7.53;;;;;;;;;;5093009;28;20518;-61
2023/05/08 13:20:33;;;;;;;12.63;7.73;;;;;;;;;;5094854;28;20401;-61
2023/05/08 13:23:00;;;;;;;9.17;7.17;;;;;;;;;;5094965;28;20024;-61
2023/05/08 13:25:27;;;;;;;17.17;8.40;;;;;;;;;;5094744;28;20028;-61
2023/05/08 13:27:54;;;;;;;14.13;7.87;;;;;;;;;;5094810;28;20016;-61
2023/05/08 13:30:21;;;;;;;14.77;7.83;;;;;;;;;;5091088;28;20069;-61
2023/05/08 13:32:49;;;;;;;9.43;7.70;;;;;;;;;;5089929;28;20101;-61
2023/05/08 13:35:16;;;;;;;17.17;7.73;;;;;;;;;;5088998;28;20039;-62
2023/05/08 13:37:43;;;;;;;14.93;8.83;;;;;;;;;;5089696;28;20032;-61
2023/05/08 13:40:10;;;;;;;14.60;8.97;;;;;;;;;;5092527;28;20024;-62
2023/05/08 13:42:36;;;;;;;11.43;7.70;;;;;;;;;;5094329;28;20080;-62
2023/05/08 13:45:04;;;;;;;9.97;6.50;;;;;;;;;;5094397;28;20032;-62
2023/05/08 13:47:31;;;;;;;25.23;7.00;;;;;;;;;;5094413;28;20383;-62
2023/05/08 13:49:58;;;;;;;6.77;5.03;;;;;;;;;;5094335;28;20385;-62
2023/05/08 13:52:29;;;;;;;15.13;7.73;;;;;;;;;;5091214;28;20027;-61
2023/05/08 13:54:57;;;;;;;10.57;6.40;;;;;;;;;;5089153;28;20125;-62
2023/05/08 13:57:24;;;;;;;12.07;5.63;;;;;;;;;;5089002;28;20035;-62
2023/05/08 13:59:50;;;;;;;9.10;6.17;;;;;;;;;;5089290;28;20024;-62
2023/05/08 14:02:17;;;;;;;11.07;6.97;;;;;;;;;;5091546;28;20091;-62
2023/05/08 14:04:44;;;;;;;8.90;6.70;;;;;;;;;;5094175;28;20493;-62
2023/05/08 14:07:11;;;;;;;11.67;7.33;;;;;;;;;;5093560;28;20537;-62
2023/05/08 14:09:37;;;;;;;10.07;7.07;;;;;;;;;;5093961;28;20036;-62
2023/05/08 14:12:04;;;;;;;11.47;7.00;;;;;;;;;;5094008;28;20073;-63
2023/05/08 14:14:31;;;;;;;9.23;6.47;;;;;;;;;;5091161;28;20035;-62
2023/05/08 14:16:57;;;;;;;11.63;6.53;;;;;;;;;;5088237;28;20027;-61
2023/05/08 14:19:24;;;;;;;10.23;6.83;;;;;;;;;;5088729;28;20499;-62
2023/05/08 14:21:51;;;;;;;6.57;3.90;;;;;;;;;;5088608;28;20071;-62
2023/05/08 14:24:18;;;;;;;8.57;5.27;;;;;;;;;;5090511;28;20375;-62
2023/05/08 14:26:45;;;;;;;9.37;6.47;;;;;;;;;;5093711;28;20099;-62
2023/05/08 14:29:11;;;;;;;8.17;5.60;;;;;;;;;;5093795;28;20030;-61
2023/05/08 14:31:38;;;;;;;9.57;5.27;;;;;;;;;;5093460;28;20111;-62
2023/05/08 14:34:05;;;;;;;9.90;6.23;;;;;;;;;;5093306;28;20115;-62
2023/05/08 14:36:32;;;;;;;9.07;6.50;;;;;;;;;;5091119;28;20055;-62
2023/05/08 14:38:59;;;;;;;6.33;5.13;;;;;;;;;;5088423;28;20024;-62
2023/05/08 14:41:29;;;;;;;8.13;5.80;;;;;;;;;;5087930;28;20020;-62
2023/05/08 14:43:56;;;;;;;11.50;6.87;;;;;;;;;;5088289;28;20086;-62